Astol — 9LD2250 — position and weather

sailwx.info

Track history (hours):
 
Tides and Currents Weather Stations Pressure Air Temp Water Temp Dewpoint Dewpoint Depression Visibility Wind Speed Wind Dir Waves Ship Positions

Astol

Last reported at 2017-Nov-24 00:37 UTC. Time now 2017-Dec-14 06:20 UTC.
Position N 45°32' E 036°49'.
Warning: this ship's position is 20 days out of date.

Length 114 m; draft 2.6 m.

Type: Cargo ship. MMSI: 667949000.

Date/timePositionNaut miles runAvg speedWind from/ knotsBaromVisibWave heightAir tempDewpointWater temp
2017-Nov-24 00:37N 45°32' E 036°49'1 7.3
2017-Nov-24 00:29N 45°31' E 036°48'3 7.3
2017-Nov-24 00:00N 45°28' E 036°46'4 7.3
2017-Nov-23 23:30N 45°26' E 036°43'4 7.4
2017-Nov-23 23:00N 45°22' E 036°40'4 7.1
2017-Nov-23 22:30N 45°20' E 036°36'4 7.9
2017-Nov-23 22:00N 45°19' E 036°31'3 6.6
2017-Nov-23 21:30N 45°16' E 036°29'3 6.1
2017-Nov-23 21:00N 45°13' E 036°29'2 4.2
2017-Nov-23 20:27N 45°10' E 036°29'1 1.2
2017-Nov-23 19:45N 45°10' E 036°29'0 1.1
2017-Nov-23 19:29N 45°09' E 036°29'  
2017-Nov-16 03:21N 44°57' E 036°29'4 7.6
2017-Nov-16 02:48N 45°02' E 036°29'8 7.5
2017-Nov-16 01:45N 45°09' E 036°28'2 7.7
2017-Nov-16 01:29N 45°11' E 036°28'4 7.6
2017-Nov-16 01:00N 45°15' E 036°28'3 6.5
2017-Nov-16 00:30N 45°18' E 036°29'4 7.4
2017-Nov-16 00:01N 45°20' E 036°34'4 8.3
2017-Nov-15 23:31N 45°21' E 036°39'4 7.2
2017-Nov-15 23:01N 45°25' E 036°41'4 7.5
2017-Nov-15 22:31N 45°29' E 036°42'  
Track history (hours):
 
Tides and Currents Weather Stations Pressure Air Temp Water Temp Dewpoint Dewpoint Depression Visibility Wind Speed Wind Dir Waves Ship Positions

Astol

Last reported at 2017-Nov-24 00:37 UTC. Time now 2017-Dec-14 06:20 UTC.
Position N 45°32' E 036°49'.
Warning: this ship's position is 20 days out of date.

Length 114 m; draft 2.6 m.

Type: Cargo ship. MMSI: 667949000.

Date/timePositionNaut miles runAvg speedWind from/ knotsBaromVisibWave heightAir tempDewpointWater temp
2017-Nov-24 00:37N 45°32' E 036°49'1 7.3
2017-Nov-24 00:29N 45°31' E 036°48'3 7.3
2017-Nov-24 00:00N 45°28' E 036°46'4 7.3
2017-Nov-23 23:30N 45°26' E 036°43'4 7.4
2017-Nov-23 23:00N 45°22' E 036°40'4 7.1
2017-Nov-23 22:30N 45°20' E 036°36'4 7.9
2017-Nov-23 22:00N 45°19' E 036°31'3 6.6
2017-Nov-23 21:30N 45°16' E 036°29'3 6.1
2017-Nov-23 21:00N 45°13' E 036°29'2 4.2
2017-Nov-23 20:27N 45°10' E 036°29'1 1.2
2017-Nov-23 19:45N 45°10' E 036°29'0 1.1
2017-Nov-23 19:29N 45°09' E 036°29'  
2017-Nov-16 03:21N 44°57' E 036°29'4 7.6
2017-Nov-16 02:48N 45°02' E 036°29'8 7.5
2017-Nov-16 01:45N 45°09' E 036°28'2 7.7
2017-Nov-16 01:29N 45°11' E 036°28'4 7.6
2017-Nov-16 01:00N 45°15' E 036°28'3 6.5
2017-Nov-16 00:30N 45°18' E 036°29'4 7.4
2017-Nov-16 00:01N 45°20' E 036°34'4 8.3
2017-Nov-15 23:31N 45°21' E 036°39'4 7.2
2017-Nov-15 23:01N 45°25' E 036°41'4 7.5
2017-Nov-15 22:31N 45°29' E 036°42'  

Dump ship's entire track history